createdAt,value
2023-01-01T00:00:15.052Z,16.38
2023-01-01T00:00:49.944Z,16.38
2023-01-01T00:01:22.233Z,16.38
2023-01-01T00:01:53.892Z,16.38
2023-01-01T00:02:28.274Z,16.38
2023-01-01T00:02:57.822Z,16.38
2023-01-01T00:03:29.967Z,16.38
2023-01-01T00:03:52.638Z,16.38
2023-01-01T00:04:15.157Z,16.38
2023-01-01T00:04:50.331Z,16.38
2023-01-01T00:05:22.077Z,16.38
2023-01-01T00:05:54.396Z,16.38
2023-01-01T00:06:25.672Z,16.38
2023-01-01T00:06:57.803Z,16.38
2023-01-01T00:07:29.678Z,16.38
2023-01-01T00:07:52.927Z,16.38
2023-01-01T00:08:15.394Z,16.38
2023-01-01T00:08:50.288Z,16.38
2023-01-01T00:09:22.848Z,16.38
2023-01-01T00:09:53.771Z,16.38
2023-01-01T00:10:26.123Z,16.38
2023-01-01T00:10:57.689Z,16.38
2023-01-01T00:11:29.729Z,16.38
2023-01-01T00:11:52.583Z,16.50
2023-01-01T00:12:15.038Z,16.50
2023-01-01T00:12:49.900Z,16.50
2023-01-01T00:13:21.779Z,16.50
2023-01-01T00:13:54.194Z,16.50
2023-01-01T00:14:25.670Z,16.50
2023-01-01T00:14:57.791Z,16.50
2023-01-01T00:15:29.761Z,16.50
2023-01-01T00:15:52.393Z,16.50
2023-01-01T00:16:15.296Z,16.50
2023-01-01T00:16:49.805Z,16.50
2023-01-01T00:17:21.888Z,16.50
2023-01-01T00:17:53.851Z,16.50
2023-01-01T00:18:25.723Z,16.50
2023-01-01T00:18:57.792Z,16.50
2023-01-01T00:19:29.826Z,16.50
2023-01-01T00:19:52.442Z,16.50
2023-01-01T00:20:15.024Z,16.61
2023-01-01T00:20:50.721Z,16.61
2023-01-01T00:21:21.977Z,16.61
2023-01-01T00:21:53.716Z,16.61
2023-01-01T00:22:53.461Z,16.61
2023-01-01T00:22:58.055Z,16.50
2023-01-01T00:23:29.777Z,16.38
2023-01-01T00:23:52.591Z,16.38
2023-01-01T00:24:15.105Z,16.38
2023-01-01T00:24:49.712Z,16.38
2023-01-01T00:25:21.749Z,16.38
2023-01-01T00:25:53.758Z,16.38
2023-01-01T00:26:30.944Z,16.38
2023-01-01T00:26:57.992Z,16.38
2023-01-01T00:27:30.040Z,16.38
2023-01-01T00:27:54.279Z,16.38
2023-01-01T00:28:15.399Z,16.38
2023-01-01T00:28:50.283Z,16.38
2023-01-01T00:29:21.929Z,16.38
2023-01-01T00:29:54.267Z,16.38
2023-01-01T00:30:26.941Z,16.38
2023-01-01T00:30:58.671Z,16.38
2023-01-01T00:31:30.336Z,16.38
2023-01-01T00:31:52.724Z,16.27
2023-01-01T00:32:22.445Z,16.27
2023-01-01T00:32:54.759Z,16.27
2023-01-01T00:33:22.053Z,16.22
2023-01-01T00:33:53.938Z,16.22
2023-01-01T00:34:26.044Z,16.22
2023-01-01T00:34:57.787Z,16.22
2023-01-01T00:35:30.406Z,16.22
2023-01-01T00:35:52.560Z,16.22
2023-01-01T00:36:15.029Z,16.27
2023-01-01T00:36:54.497Z,16.27
2023-01-01T00:37:16.798Z,16.27
2023-01-01T00:37:54.115Z,16.27
2023-01-01T00:38:25.679Z,16.27
2023-01-01T00:38:57.641Z,16.38
2023-01-01T00:39:31.886Z,16.38
2023-01-01T00:39:55.044Z,16.27
2023-01-01T00:40:17.216Z,16.38
2023-01-01T00:40:49.677Z,16.38
2023-01-01T00:41:22.085Z,16.38
2023-01-01T00:41:53.761Z,16.38
2023-01-01T00:42:25.998Z,16.38
2023-01-01T00:42:57.655Z,16.38
2023-01-01T00:43:30.033Z,16.38
2023-01-01T00:43:52.899Z,16.38
2023-01-01T00:44:15.200Z,16.38
2023-01-01T00:44:49.712Z,16.38
2023-01-01T00:45:22.609Z,16.38
2023-01-01T00:45:53.901Z,16.27
2023-01-01T00:46:25.755Z,16.27
2023-01-01T00:46:57.945Z,16.27
2023-01-01T00:47:29.584Z,16.27
2023-01-01T00:47:52.327Z,16.27
2023-01-01T00:48:14.665Z,16.27
2023-01-01T00:48:49.678Z,16.27
2023-01-01T00:49:21.662Z,16.27
2023-01-01T00:49:53.708Z,16.27
2023-01-01T00:50:25.529Z,16.38
2023-01-01T00:50:57.633Z,16.38
2023-01-01T00:51:34.941Z,16.38
2023-01-01T00:51:52.594Z,16.38
2023-01-01T00:52:14.790Z,16.38
2023-01-01T00:52:49.999Z,16.27
2023-01-01T00:53:22.992Z,16.27
2023-01-01T00:53:53.591Z,16.27
2023-01-01T00:54:25.619Z,16.27
2023-01-01T00:54:57.696Z,16.27
2023-01-01T00:55:29.549Z,16.38
2023-01-01T00:55:52.794Z,16.38
2023-01-01T00:56:15.145Z,16.38
2023-01-01T00:56:49.627Z,16.38
2023-01-01T00:57:21.869Z,16.38
2023-01-01T00:57:53.575Z,16.38
2023-01-01T00:58:25.424Z,16.38
2023-01-01T00:59:00.810Z,16.50
2023-01-01T00:59:29.624Z,16.50
2023-01-01T00:59:52.634Z,16.50
2023-01-01T01:00:15.155Z,16.50
2023-01-01T01:00:49.570Z,16.50
2023-01-01T01:01:21.847Z,16.27
2023-01-01T01:01:54.335Z,16.27
2023-01-01T01:02:25.877Z,16.27
2023-01-01T01:02:57.866Z,16.27
2023-01-01T01:03:29.680Z,16.27
2023-01-01T01:03:52.358Z,16.27
2023-01-01T01:04:14.941Z,16.27
2023-01-01T01:04:50.128Z,16.27
2023-01-01T01:05:21.855Z,16.22
2023-01-01T01:05:54.170Z,16.11
2023-01-01T01:06:25.508Z,16.11
2023-01-01T01:06:57.576Z,16.11
2023-01-01T01:07:29.519Z,16.11
2023-01-01T01:07:52.623Z,16.22
2023-01-01T01:08:14.694Z,16.22
2023-01-01T01:08:49.697Z,16.22
2023-01-01T01:09:21.611Z,16.22
2023-01-01T01:09:53.723Z,16.22
2023-01-01T01:10:25.618Z,16.22
2023-01-01T01:10:57.610Z,16.22
2023-01-01T01:11:29.640Z,16.22
2023-01-01T01:11:52.521Z,16.22
2023-01-01T01:12:33.540Z,16.22
2023-01-01T01:12:56.587Z,16.22
2023-01-01T01:13:18.766Z,16.22
2023-01-01T01:13:53.852Z,16.11
2023-01-01T01:14:25.552Z,16.11
2023-01-01T01:14:57.518Z,16.11
2023-01-01T01:15:29.628Z,16.11
2023-01-01T01:15:56.298Z,16.11
2023-01-01T01:16:14.868Z,16.11
2023-01-01T01:16:49.784Z,16.11
2023-01-01T01:17:21.640Z,16.11
2023-01-01T01:17:53.671Z,16.11
2023-01-01T01:18:25.722Z,16.11
2023-01-01T01:18:57.643Z,16.11
2023-01-01T01:19:30.004Z,16.00
2023-01-01T01:19:52.426Z,16.00
2023-01-01T01:20:14.790Z,15.88
2023-01-01T01:20:49.644Z,15.88
2023-01-01T01:21:21.516Z,15.88
2023-01-01T01:21:55.105Z,15.88
2023-01-01T01:22:28.688Z,15.88
2023-01-01T01:22:57.554Z,15.88
2023-01-01T01:23:29.695Z,15.88
2023-01-01T01:23:52.430Z,15.88
2023-01-01T01:24:14.755Z,15.88
2023-01-01T01:24:49.756Z,16.00
2023-01-01T01:25:21.524Z,16.00
2023-01-01T01:25:53.491Z,16.00
2023-01-01T01:26:25.669Z,16.00
2023-01-01T01:26:57.539Z,16.00
2023-01-01T01:27:29.710Z,16.00
2023-01-01T01:27:52.550Z,16.00
2023-01-01T01:28:14.810Z,16.00
2023-01-01T01:28:50.317Z,16.00
2023-01-01T01:29:21.748Z,16.00
2023-01-01T01:29:53.569Z,16.00
2023-01-01T01:30:25.689Z,16.00
2023-01-01T01:30:59.064Z,16.00
2023-01-01T01:31:29.689Z,16.00
2023-01-01T01:31:52.617Z,16.00
2023-01-01T01:32:14.988Z,16.00
2023-01-01T01:32:49.824Z,16.00
2023-01-01T01:33:21.721Z,16.00
2023-01-01T01:33:53.634Z,16.00
2023-01-01T01:34:28.037Z,16.00
2023-01-01T01:34:57.646Z,16.00
2023-01-01T01:35:29.602Z,16.00
2023-01-01T01:35:52.530Z,16.00
2023-01-01T01:36:15.032Z,16.00
2023-01-01T01:36:50.124Z,16.00
2023-01-01T01:37:21.574Z,16.00
2023-01-01T01:37:53.966Z,16.00
2023-01-01T01:38:25.631Z,16.00
2023-01-01T01:38:57.841Z,16.00
2023-01-01T01:39:29.481Z,16.00
2023-01-01T01:39:55.373Z,16.00
2023-01-01T01:40:34.230Z,16.00
2023-01-01T01:40:57.131Z,15.88
2023-01-01T01:41:27.807Z,15.88
2023-01-01T01:41:53.623Z,15.88
2023-01-01T01:42:25.804Z,15.88
2023-01-01T01:42:57.721Z,15.88
2023-01-01T01:43:29.678Z,15.88
2023-01-01T01:43:52.613Z,15.88
2023-01-01T01:44:15.026Z,15.88
2023-01-01T01:44:49.644Z,15.88
2023-01-01T01:45:22.152Z,15.88
2023-01-01T01:45:53.526Z,15.88
2023-01-01T01:46:25.797Z,15.77
2023-01-01T01:46:57.932Z,15.77
2023-01-01T01:47:29.551Z,15.77
2023-01-01T01:47:52.772Z,15.77
2023-01-01T01:48:15.162Z,15.77
2023-01-01T01:48:49.706Z,15.77
2023-01-01T01:49:21.593Z,15.77
2023-01-01T01:49:53.774Z,15.77
2023-01-01T01:50:25.626Z,15.77
2023-01-01T01:50:57.494Z,15.77
2023-01-01T01:51:29.573Z,15.77
2023-01-01T01:51:52.393Z,15.77
2023-01-01T01:52:15.267Z,15.77
2023-01-01T01:52:50.079Z,15.77
2023-01-01T01:53:21.442Z,15.88
2023-01-01T01:53:53.624Z,15.88
2023-01-01T01:54:25.485Z,15.88
2023-01-01T01:54:57.693Z,15.88
2023-01-01T01:55:29.629Z,15.88
2023-01-01T01:55:52.564Z,15.88
2023-01-01T01:56:14.979Z,16.00
2023-01-01T01:56:49.732Z,16.00
2023-01-01T01:57:21.580Z,16.00
2023-01-01T01:57:53.568Z,16.00
2023-01-01T01:58:25.824Z,16.00
2023-01-01T01:58:58.982Z,16.00
2023-01-01T01:59:29.705Z,16.00
2023-01-01T01:59:52.468Z,16.00
2023-01-01T02:00:14.894Z,16.00
2023-01-01T02:00:49.609Z,16.00
2023-01-01T02:01:22.099Z,16.00
2023-01-01T02:01:53.752Z,16.00
2023-01-01T02:02:25.956Z,16.00
2023-01-01T02:02:51.809Z,16.00
2023-01-01T02:03:25.718Z,15.88
2023-01-01T02:04:33.988Z,15.88
2023-01-01T02:04:56.578Z,15.88
2023-01-01T02:05:19.525Z,15.88
2023-01-01T02:05:55.458Z,15.88
2023-01-01T02:06:25.677Z,15.88
2023-01-01T02:06:57.592Z,15.88
2023-01-01T02:07:29.904Z,15.88
2023-01-01T02:07:52.601Z,15.88
2023-01-01T02:08:15.263Z,15.88
2023-01-01T02:08:49.689Z,15.88
2023-01-01T02:09:21.681Z,15.88
2023-01-01T02:09:54.110Z,15.88
2023-01-01T02:10:25.639Z,16.00
2023-01-01T02:10:57.660Z,16.00
2023-01-01T02:11:30.355Z,16.00
2023-01-01T02:11:52.976Z,16.00
2023-01-01T02:12:19.913Z,16.00
2023-01-01T02:12:49.700Z,16.00
2023-01-01T02:13:22.112Z,16.00
2023-01-01T02:13:53.649Z,16.00
2023-01-01T02:14:25.646Z,16.00
2023-01-01T02:14:57.539Z,15.88
2023-01-01T02:15:29.640Z,15.88
2023-01-01T02:15:52.349Z,15.88
2023-01-01T02:16:14.618Z,15.88
2023-01-01T02:16:49.465Z,15.88
2023-01-01T02:17:21.596Z,15.88
2023-01-01T02:17:53.547Z,15.77
2023-01-01T02:18:25.960Z,15.77
2023-01-01T02:18:57.678Z,15.77
2023-01-01T02:19:30.018Z,15.77
2023-01-01T02:19:52.278Z,15.77
2023-01-01T02:20:16.388Z,15.77
2023-01-01T02:20:49.536Z,15.77
2023-01-01T02:21:21.798Z,15.77
2023-01-01T02:21:53.929Z,15.77
2023-01-01T02:22:25.691Z,15.77
2023-01-01T02:23:03.902Z,15.88
2023-01-01T02:23:29.670Z,15.88
2023-01-01T02:23:52.561Z,15.88
2023-01-01T02:24:15.150Z,15.88
2023-01-01T02:24:49.652Z,15.88
2023-01-01T02:25:21.891Z,15.88
2023-01-01T02:25:53.686Z,15.88
2023-01-01T02:26:27.450Z,15.88
2023-01-01T02:26:57.975Z,15.88
2023-01-01T02:27:30.004Z,15.88
2023-01-01T02:27:52.577Z,15.88
2023-01-01T02:28:15.798Z,15.88
2023-01-01T02:28:49.587Z,15.88
2023-01-01T02:29:25.181Z,15.77
2023-01-01T02:29:53.514Z,15.77
2023-01-01T02:30:25.569Z,15.77
2023-01-01T02:30:57.923Z,15.77
2023-01-01T02:31:29.765Z,15.77
2023-01-01T02:31:52.356Z,15.88
2023-01-01T02:32:14.893Z,15.88
2023-01-01T02:32:49.746Z,15.88
2023-01-01T02:33:21.839Z,15.88
2023-01-01T02:33:53.717Z,16.00
2023-01-01T02:34:25.830Z,16.11
2023-01-01T02:34:57.568Z,16.11
2023-01-01T02:35:29.646Z,16.11
2023-01-01T02:35:52.282Z,16.11
2023-01-01T02:36:15.924Z,16.11
2023-01-01T02:36:50.058Z,16.11
2023-01-01T02:37:22.658Z,16.00
2023-01-01T02:37:53.677Z,16.00
2023-01-01T02:38:25.557Z,15.88
2023-01-01T02:38:57.756Z,15.88
2023-01-01T02:39:30.264Z,15.88
2023-01-01T02:39:52.955Z,15.88
2023-01-01T02:40:15.255Z,15.88
2023-01-01T02:40:49.734Z,16.00
2023-01-01T02:41:21.582Z,16.00
2023-01-01T02:41:53.907Z,16.00
2023-01-01T02:42:25.520Z,16.00
2023-01-01T02:42:57.612Z,16.00
2023-01-01T02:43:29.428Z,15.88
2023-01-01T02:43:52.279Z,15.88
2023-01-01T02:44:16.529Z,15.88
2023-01-01T02:44:49.549Z,15.88
2023-01-01T02:45:22.241Z,15.88
2023-01-01T02:45:53.710Z,15.88
2023-01-01T02:46:32.562Z,15.77
2023-01-01T02:46:54.968Z,15.77
2023-01-01T02:47:25.813Z,15.77
2023-01-01T02:47:57.122Z,15.77
2023-01-01T02:48:33.645Z,15.77
2023-01-01T02:48:56.328Z,15.77
2023-01-01T02:49:19.149Z,15.88
2023-01-01T02:49:53.771Z,15.88
2023-01-01T02:50:25.957Z,15.88
2023-01-01T02:50:57.692Z,15.77
2023-01-01T02:51:29.572Z,15.77
2023-01-01T02:51:52.478Z,15.77
2023-01-01T02:52:15.444Z,15.77
2023-01-01T02:52:49.636Z,15.77
2023-01-01T02:53:21.692Z,15.72
2023-01-01T02:53:54.062Z,15.72
2023-01-01T02:54:25.691Z,15.72
2023-01-01T02:54:57.632Z,15.72
2023-01-01T02:55:30.039Z,15.72
2023-01-01T02:55:52.763Z,15.72
2023-01-01T02:56:15.265Z,15.72
2023-01-01T02:56:49.861Z,15.72
2023-01-01T02:57:22.943Z,15.72
2023-01-01T02:57:53.787Z,15.61
2023-01-01T02:58:30.962Z,15.61
2023-01-01T02:58:57.519Z,15.61
2023-01-01T02:59:29.660Z,15.61
2023-01-01T02:59:52.462Z,15.61
2023-01-01T03:00:18.507Z,15.61
2023-01-01T03:00:49.670Z,15.61
2023-01-01T03:01:21.590Z,15.72
2023-01-01T03:01:53.672Z,15.72
2023-01-01T03:02:25.664Z,15.77
2023-01-01T03:02:57.863Z,15.77
2023-01-01T03:03:29.875Z,15.77
2023-01-01T03:03:58.385Z,15.77
2023-01-01T03:04:36.181Z,15.77
2023-01-01T03:04:56.148Z,15.77
2023-01-01T03:05:19.474Z,15.72
2023-01-01T03:05:53.936Z,15.61
2023-01-01T03:06:25.732Z,15.61
2023-01-01T03:06:58.427Z,15.61
2023-01-01T03:07:29.603Z,15.61
2023-01-01T03:07:52.712Z,15.72
2023-01-01T03:08:14.662Z,15.72
2023-01-01T03:08:49.856Z,15.72
2023-01-01T03:09:21.647Z,15.72
2023-01-01T03:09:53.750Z,15.72
2023-01-01T03:10:25.537Z,15.72
2023-01-01T03:10:57.698Z,15.72
2023-01-01T03:11:29.554Z,15.72
2023-01-01T03:11:52.380Z,15.72
2023-01-01T03:12:14.733Z,15.72
2023-01-01T03:12:49.830Z,15.72
2023-01-01T03:13:21.621Z,15.72
2023-01-01T03:13:57.124Z,15.72
2023-01-01T03:14:26.348Z,15.61
2023-01-01T03:14:58.458Z,15.61
2023-01-01T03:15:29.591Z,15.61
2023-01-01T03:15:52.169Z,15.61
2023-01-01T03:16:14.500Z,15.61
2023-01-01T03:16:49.817Z,15.50
2023-01-01T03:17:21.693Z,15.50
2023-01-01T03:17:53.927Z,15.50
2023-01-01T03:18:25.395Z,15.38
2023-01-01T03:18:57.592Z,15.38
2023-01-01T03:19:29.580Z,15.38
2023-01-01T03:19:52.213Z,15.38
2023-01-01T03:20:14.661Z,15.38
2023-01-01T03:20:49.745Z,15.50
2023-01-01T03:21:21.667Z,15.50
2023-01-01T03:21:53.450Z,15.50
2023-01-01T03:22:25.474Z,15.50
2023-01-01T03:22:57.487Z,15.50
2023-01-01T03:23:32.864Z,15.50
2023-01-01T03:23:55.355Z,15.50
2023-01-01T03:24:35.835Z,15.38
2023-01-01T03:24:56.895Z,15.38
2023-01-01T03:25:19.212Z,15.38
2023-01-01T03:25:53.640Z,15.27
2023-01-01T03:26:25.652Z,15.27
2023-01-01T03:26:57.582Z,15.27
2023-01-01T03:27:29.523Z,15.27
2023-01-01T03:27:52.212Z,15.27
2023-01-01T03:28:16.547Z,15.27
2023-01-01T03:28:49.503Z,15.27
2023-01-01T03:29:23.203Z,15.27
2023-01-01T03:29:53.592Z,15.22
2023-01-01T03:30:27.249Z,15.22
2023-01-01T03:30:57.655Z,15.22
2023-01-01T03:31:29.898Z,15.22
2023-01-01T03:31:52.757Z,15.22
2023-01-01T03:36:56.034Z,15.27
2023-01-01T03:37:18.518Z,15.27
2023-01-01T03:37:53.419Z,15.38
2023-01-01T03:38:25.692Z,15.38
2023-01-01T03:38:57.413Z,15.38
2023-01-01T03:39:29.386Z,15.38
2023-01-01T03:39:57.900Z,15.38
2023-01-01T03:40:34.321Z,15.38
2023-01-01T03:40:56.494Z,15.38
2023-01-01T03:41:20.127Z,15.38
2023-01-01T03:41:53.378Z,15.38
2023-01-01T03:42:27.009Z,15.38
2023-01-01T03:42:59.833Z,15.38
2023-01-01T03:43:29.716Z,15.38
2023-01-01T03:43:52.272Z,15.38
2023-01-01T03:44:15.162Z,15.27
2023-01-01T03:44:49.995Z,15.27
2023-01-01T03:45:21.986Z,15.27
2023-01-01T03:45:54.319Z,15.27
2023-01-01T03:46:25.693Z,15.27
2023-01-01T03:46:58.843Z,15.38
2023-01-01T03:47:29.407Z,15.38
2023-01-01T03:47:52.163Z,15.38
2023-01-01T03:48:15.004Z,15.38
2023-01-01T03:48:49.925Z,15.38
2023-01-01T03:49:21.958Z,15.38
2023-01-01T03:49:53.822Z,15.38
2023-01-01T03:50:25.974Z,15.38
2023-01-01T03:50:58.204Z,15.38
2023-01-01T03:51:30.766Z,15.50
2023-01-01T03:51:53.384Z,15.50
2023-01-01T03:52:19.031Z,15.50
2023-01-01T03:52:49.898Z,15.50
2023-01-01T03:53:21.827Z,15.50
2023-01-01T03:53:54.549Z,15.38
2023-01-01T03:54:25.523Z,15.38
2023-01-01T03:54:59.877Z,15.27
2023-01-01T03:55:29.522Z,15.27
2023-01-01T03:55:52.085Z,15.27
2023-01-01T03:56:15.032Z,15.27
2023-01-01T03:56:50.492Z,15.27
2023-01-01T03:57:25.273Z,15.38
2023-01-01T03:57:53.600Z,15.38
2023-01-01T03:58:27.188Z,15.38
2023-01-01T03:58:58.131Z,15.50
2023-01-01T03:59:29.999Z,15.50
2023-01-01T03:59:52.570Z,15.50
2023-01-01T04:00:16.690Z,15.50
2023-01-01T04:00:50.225Z,15.50
2023-01-01T04:01:22.271Z,15.50
2023-01-01T04:01:54.077Z,15.50
2023-01-01T04:02:42.387Z,15.50
2023-01-01T04:03:04.189Z,15.50
2023-01-01T04:03:26.800Z,15.50
2023-01-01T04:03:57.422Z,15.50
2023-01-01T04:04:33.645Z,15.61
2023-01-01T04:04:56.253Z,15.61
2023-01-01T04:05:18.745Z,15.61
2023-01-01T04:05:56.839Z,15.61
2023-01-01T04:06:25.615Z,15.50
2023-01-01T04:07:05.241Z,15.61
2023-01-01T04:07:29.576Z,15.61
2023-01-01T04:07:52.507Z,15.61
2023-01-01T04:08:15.004Z,15.50
2023-01-01T04:08:49.438Z,15.50
2023-01-01T04:09:21.516Z,15.50
2023-01-01T04:09:53.436Z,15.50
2023-01-01T04:10:25.536Z,15.50
2023-01-01T04:10:57.301Z,15.50
2023-01-01T04:11:29.586Z,15.38
2023-01-01T04:11:52.347Z,15.38
2023-01-01T04:12:14.814Z,15.38
2023-01-01T04:12:49.505Z,15.38
2023-01-01T04:13:21.646Z,15.38
2023-01-01T04:13:53.337Z,15.38
2023-01-01T04:14:25.496Z,15.38
2023-01-01T04:14:57.500Z,15.38
2023-01-01T04:15:29.581Z,15.38
2023-01-01T04:15:52.489Z,15.38
2023-01-01T04:16:14.870Z,15.38
2023-01-01T04:16:49.361Z,15.38
2023-01-01T04:17:21.423Z,15.38
2023-01-01T04:17:53.724Z,15.38
2023-01-01T04:18:20.197Z,15.38
2023-01-01T04:18:57.716Z,15.38
2023-01-01T04:19:29.819Z,15.38
2023-01-01T04:19:55.238Z,15.38
2023-01-01T04:20:14.914Z,15.50
2023-01-01T04:20:50.527Z,15.50
2023-01-01T04:21:23.387Z,15.50
2023-01-01T04:21:55.399Z,15.38
2023-01-01T04:22:27.648Z,15.38
2023-01-01T04:22:58.007Z,15.38
2023-01-01T04:23:29.531Z,15.38
2023-01-01T04:23:52.167Z,15.38
2023-01-01T04:24:16.396Z,15.38
2023-01-01T04:24:50.099Z,15.27
2023-01-01T04:25:21.712Z,15.27
2023-01-01T04:25:53.440Z,15.27
2023-01-01T04:26:26.698Z,15.27
2023-01-01T04:26:57.411Z,15.27
2023-01-01T04:27:30.726Z,15.38
2023-01-01T04:27:53.276Z,15.38
2023-01-01T04:28:15.931Z,15.38
2023-01-01T04:28:50.184Z,15.50
2023-01-01T04:29:21.565Z,15.50
2023-01-01T04:29:54.111Z,15.50
2023-01-01T04:30:25.538Z,15.50
2023-01-01T04:31:30.771Z,15.50
2023-01-01T04:31:53.080Z,15.50
2023-01-01T04:32:16.237Z,15.50
2023-01-01T04:32:49.471Z,15.50
2023-01-01T04:33:22.015Z,15.38
2023-01-01T04:33:53.485Z,15.38
2023-01-01T04:34:25.451Z,15.38
2023-01-01T04:34:58.113Z,15.38
2023-01-01T04:35:29.663Z,15.38
2023-01-01T04:35:52.468Z,15.38
2023-01-01T04:36:14.900Z,15.38
2023-01-01T04:36:56.814Z,15.38
2023-01-01T04:37:19.120Z,15.38
2023-01-01T04:37:53.519Z,15.38
2023-01-01T04:38:25.766Z,15.38
2023-01-01T04:38:57.504Z,15.38
2023-01-01T04:39:29.359Z,15.38
2023-01-01T04:39:52.608Z,15.38
2023-01-01T04:40:14.580Z,15.38
2023-01-01T04:40:49.460Z,15.38
2023-01-01T04:41:21.621Z,15.38
2023-01-01T04:41:53.365Z,15.38
2023-01-01T04:42:25.503Z,15.27
2023-01-01T04:42:57.474Z,15.27
2023-01-01T04:43:29.542Z,15.27
2023-01-01T04:43:52.384Z,15.27
2023-01-01T04:44:14.946Z,15.27
2023-01-01T04:44:49.486Z,15.27
2023-01-01T04:45:21.746Z,15.22
2023-01-01T04:45:53.341Z,15.22
2023-01-01T04:46:25.713Z,15.22
2023-01-01T04:47:00.210Z,15.22
2023-01-01T04:47:29.725Z,15.22
2023-01-01T04:47:52.955Z,15.22
2023-01-01T04:48:15.220Z,15.22
2023-01-01T04:48:49.356Z,15.22
2023-01-01T04:49:22.845Z,15.27
2023-01-01T04:49:53.600Z,15.27
2023-01-01T04:50:25.344Z,15.27
2023-01-01T04:50:57.665Z,15.27
2023-01-01T04:51:29.532Z,15.27
2023-01-01T04:51:53.762Z,15.27
2023-01-01T04:52:14.780Z,15.27
2023-01-01T04:52:49.597Z,15.27
2023-01-01T04:53:21.451Z,15.27
2023-01-01T04:53:53.600Z,15.27
2023-01-01T04:54:26.493Z,15.27
2023-01-01T04:54:57.953Z,15.27
2023-01-01T04:55:29.462Z,15.27
2023-01-01T04:55:52.117Z,15.27
2023-01-01T04:56:14.652Z,15.27
2023-01-01T04:56:49.694Z,15.27
2023-01-01T04:57:21.381Z,15.27
2023-01-01T04:57:53.427Z,15.27
2023-01-01T04:58:27.053Z,15.27
2023-01-01T04:58:57.399Z,15.27
2023-01-01T04:59:29.478Z,15.27
2023-01-01T04:59:52.971Z,15.27
2023-01-01T05:00:15.617Z,15.27
2023-01-01T05:00:50.130Z,15.22
2023-01-01T05:01:22.130Z,15.22
2023-01-01T05:01:53.786Z,15.22
2023-01-01T05:02:25.721Z,15.22
2023-01-01T05:02:57.762Z,15.22
2023-01-01T05:03:31.155Z,15.22
2023-01-01T05:03:54.118Z,15.22
2023-01-01T05:04:16.453Z,15.22
2023-01-01T05:04:49.516Z,15.27
2023-01-01T05:05:21.542Z,15.27
2023-01-01T05:05:53.404Z,15.27
2023-01-01T05:06:25.684Z,15.27
2023-01-01T05:06:57.773Z,15.27
2023-01-01T05:07:29.599Z,15.27
2023-01-01T05:07:52.419Z,15.27
2023-01-01T05:08:14.503Z,15.27
2023-01-01T05:08:49.485Z,15.27
2023-01-01T05:09:21.513Z,15.27
2023-01-01T05:09:53.377Z,15.27
2023-01-01T05:10:25.693Z,15.27
2023-01-01T05:10:57.596Z,15.27
2023-01-01T05:11:29.489Z,15.27
2023-01-01T05:11:52.095Z,15.27
2023-01-01T05:12:14.447Z,15.22
2023-01-01T05:12:49.768Z,15.22
2023-01-01T05:13:21.488Z,15.22
2023-01-01T05:13:53.445Z,15.11
2023-01-01T05:14:25.481Z,15.11
2023-01-01T05:14:57.362Z,15.11
2023-01-01T05:15:29.505Z,15.11
2023-01-01T05:15:52.391Z,15.11
2023-01-01T05:16:14.802Z,15.11
2023-01-01T05:16:49.639Z,15.11
2023-01-01T05:17:21.395Z,15.11
2023-01-01T05:17:53.537Z,15.11
2023-01-01T05:18:25.441Z,15.11
2023-01-01T05:18:57.468Z,15.11
2023-01-01T05:19:29.495Z,15.11
2023-01-01T05:19:52.516Z,15.11
2023-01-01T05:20:14.752Z,15.11
2023-01-01T05:20:49.427Z,15.11
2023-01-01T05:21:21.366Z,15.22
2023-01-01T05:21:53.572Z,15.22
2023-01-01T05:22:25.380Z,15.22
2023-01-01T05:22:57.430Z,15.22
2023-01-01T05:23:29.369Z,15.22
2023-01-01T05:23:52.102Z,15.22
2023-01-01T05:24:14.473Z,15.22
2023-01-01T05:24:49.664Z,15.22
2023-01-01T05:25:21.555Z,15.22
2023-01-01T05:25:53.319Z,15.11
2023-01-01T05:26:25.313Z,15.11
2023-01-01T05:26:57.633Z,15.11
2023-01-01T05:27:29.548Z,15.11
2023-01-01T05:27:52.146Z,15.11
2023-01-01T05:28:14.583Z,15.11
2023-01-01T05:28:49.385Z,15.00
2023-01-01T05:29:21.343Z,15.00
2023-01-01T05:29:53.475Z,15.00
2023-01-01T05:30:25.422Z,15.00
2023-01-01T05:30:57.665Z,15.00
2023-01-01T05:31:29.488Z,15.00
2023-01-01T05:31:52.142Z,15.00
2023-01-01T05:32:49.410Z,15.00
2023-01-01T05:33:21.465Z,15.00
2023-01-01T05:33:53.549Z,15.00
2023-01-01T05:34:25.653Z,15.00
2023-01-01T05:34:57.424Z,14.88
2023-01-01T05:35:29.510Z,14.88
2023-01-01T05:35:52.283Z,14.88
2023-01-01T05:36:14.664Z,14.88
2023-01-01T05:36:49.889Z,14.88
2023-01-01T05:37:21.417Z,14.88
2023-01-01T05:37:53.742Z,14.88
2023-01-01T05:38:25.543Z,14.88
2023-01-01T05:38:57.326Z,14.88
2023-01-01T05:39:29.511Z,14.88
2023-01-01T05:39:58.165Z,14.88
2023-01-01T05:40:35.305Z,14.88
2023-01-01T05:40:58.099Z,14.88
2023-01-01T05:41:20.488Z,14.77
2023-01-01T05:41:53.301Z,14.77
2023-01-01T05:42:25.430Z,14.77
2023-01-01T05:42:57.475Z,14.77
2023-01-01T05:43:29.444Z,14.77
2023-01-01T05:43:52.140Z,14.77
2023-01-01T05:44:14.508Z,14.77
2023-01-01T05:44:49.397Z,14.77
2023-01-01T05:45:21.464Z,14.77
2023-01-01T05:45:55.203Z,14.77
2023-01-01T05:46:26.927Z,14.77
2023-01-01T05:46:59.717Z,14.77
2023-01-01T05:47:29.988Z,14.77
2023-01-01T05:47:52.761Z,14.77
2023-01-01T05:48:15.275Z,14.77
2023-01-01T05:48:49.429Z,14.72
2023-01-01T05:49:22.036Z,14.72
2023-01-01T05:49:53.352Z,14.72
2023-01-01T05:50:25.405Z,14.72
2023-01-01T05:50:57.467Z,14.77
2023-01-01T05:51:29.352Z,14.77
2023-01-01T05:51:52.012Z,14.72
2023-01-01T05:52:14.390Z,14.72
2023-01-01T05:52:49.379Z,14.72
2023-01-01T05:53:21.485Z,14.72
2023-01-01T05:53:53.702Z,14.72
2023-01-01T05:54:25.332Z,14.72
2023-01-01T05:54:57.376Z,14.72
2023-01-01T05:55:29.245Z,14.72
2023-01-01T05:55:53.875Z,14.72
2023-01-01T05:56:16.365Z,14.72
2023-01-01T05:56:49.627Z,14.72
2023-01-01T05:57:21.667Z,14.72
2023-01-01T05:57:53.307Z,14.61
2023-01-01T05:58:26.858Z,14.61
2023-01-01T05:58:57.354Z,14.61
2023-01-01T05:59:29.736Z,14.61
2023-01-01T05:59:52.580Z,14.61
2023-01-01T06:00:15.208Z,14.72
2023-01-01T06:00:49.448Z,14.72
2023-01-01T06:01:21.512Z,14.72
2023-01-01T06:01:53.509Z,14.72
2023-01-01T06:02:27.905Z,14.72
2023-01-01T06:02:57.393Z,14.72
2023-01-01T06:03:29.460Z,14.77
2023-01-01T06:03:52.507Z,14.77
2023-01-01T06:04:14.989Z,14.77
2023-01-01T06:04:49.646Z,14.77
2023-01-01T06:05:21.359Z,14.72
2023-01-01T06:05:53.500Z,14.72
2023-01-01T06:06:25.549Z,14.72
2023-01-01T06:06:57.268Z,14.72
2023-01-01T06:07:29.495Z,14.61
2023-01-01T06:07:52.262Z,14.61
2023-01-01T06:08:14.814Z,14.61
2023-01-01T06:08:49.458Z,14.61
2023-01-01T06:09:21.308Z,14.61
2023-01-01T06:09:53.323Z,14.61
2023-01-01T06:10:25.393Z,14.61
2023-01-01T06:10:58.931Z,14.61
2023-01-01T06:11:29.257Z,14.61
2023-01-01T06:11:52.376Z,14.61
2023-01-01T06:12:14.689Z,14.61
2023-01-01T06:12:49.489Z,14.61
2023-01-01T06:13:21.261Z,14.61
2023-01-01T06:13:53.551Z,14.61
2023-01-01T06:14:25.715Z,14.61
2023-01-01T06:14:57.386Z,14.61
2023-01-01T06:15:29.332Z,14.61
2023-01-01T06:15:52.024Z,14.61
2023-01-01T06:16:14.366Z,14.61
2023-01-01T06:16:49.560Z,14.61
2023-01-01T06:17:21.434Z,14.61
2023-01-01T06:17:53.436Z,14.50
2023-01-01T06:18:25.354Z,14.50
2023-01-01T06:18:57.309Z,14.50
2023-01-01T06:19:29.396Z,14.50
2023-01-01T06:19:52.937Z,14.50
2023-01-01T06:20:15.347Z,14.50
2023-01-01T06:20:49.372Z,14.61
2023-01-01T06:21:21.375Z,14.61
2023-01-01T06:21:53.295Z,14.61
2023-01-01T06:22:25.309Z,14.72
2023-01-01T06:22:57.421Z,14.72
2023-01-01T06:23:29.810Z,14.72
2023-01-01T06:23:52.618Z,14.72
2023-01-01T06:24:14.955Z,14.72
2023-01-01T06:24:49.342Z,14.72
2023-01-01T06:25:21.298Z,14.72
2023-01-01T06:25:53.456Z,14.61
2023-01-01T06:26:22.192Z,14.61
2023-01-01T06:26:57.935Z,14.61
2023-01-01T06:27:31.859Z,14.61
2023-01-01T06:27:53.211Z,14.61
2023-01-01T06:28:16.133Z,14.50
2023-01-01T06:28:50.367Z,14.50
2023-01-01T06:29:24.959Z,14.50
2023-01-01T06:29:47.596Z,14.50
2023-01-01T06:30:25.922Z,14.50
2023-01-01T06:30:57.374Z,14.50
2023-01-01T06:31:30.535Z,14.61
2023-01-01T06:31:53.161Z,14.61
2023-01-01T06:32:15.503Z,14.61